Time;durP1;ratioP1;P1;durP2;ratioP2;P2;SDS_P1;SDS_P2;PMS_P1;PMS_P2;Temp;Humidity;BMP_temperature;BMP_pressure;BME280_temperature;BME280_humidity;BME280_pressure;Samples;Min_cycle;Max_cycle;Signal;HPM_P1;HPM_P2
2023/07/23 00:00:30;;;;;;;0.10;0.10;;;19.30;99.90;;;;;;5019983;28;20179;-80
2023/07/23 00:02:55;;;;;;;0.10;0.10;;;19.30;99.90;;;;;;5022627;28;20337;-79
2023/07/23 00:05:23;;;;;;;0.10;0.10;;;19.10;99.90;;;;;;5027805;28;20240;-80
2023/07/23 00:07:49;;;;;;;0.10;0.10;;;19.10;99.90;;;;;;5027397;28;20187;-81
2023/07/23 00:10:15;;;;;;;0.10;0.10;;;19.00;99.90;;;;;;5030965;28;20254;-80
2023/07/23 00:12:41;;;;;;;0.10;0.10;;;19.00;99.90;;;;;;5022660;28;20334;-80
2023/07/23 00:15:06;;;;;;;0.10;0.10;;;18.90;99.90;;;;;;5022574;28;20190;-80
2023/07/23 00:17:32;;;;;;;0.10;0.10;;;18.80;99.90;;;;;;5021820;28;20189;-80
2023/07/23 00:19:58;;;;;;;0.10;0.10;;;18.70;99.90;;;;;;5026456;28;20193;-80
2023/07/23 00:22:23;;;;;;;0.10;0.10;;;18.70;99.90;;;;;;5029920;28;20687;-80
2023/07/23 00:24:50;;;;;;;0.10;0.10;;;18.70;99.90;;;;;;5033510;28;20196;-81
2023/07/23 00:27:15;;;;;;;0.10;0.10;;;18.70;99.90;;;;;;5021184;28;20210;-80
2023/07/23 00:29:41;;;;;;;0.10;0.10;;;18.70;99.90;;;;;;5025926;28;20189;-80
2023/07/23 00:32:07;;;;;;;0.10;0.10;;;18.60;99.90;;;;;;5031582;28;20238;-80
2023/07/23 00:34:33;;;;;;;0.10;0.10;;;18.40;99.90;;;;;;5022161;28;20182;-80
2023/07/23 00:36:58;;;;;;;0.10;0.10;;;18.40;99.90;;;;;;5031848;28;20269;-80
2023/07/23 00:39:24;;;;;;;0.10;0.10;;;18.30;99.90;;;;;;5032331;28;20316;-81
2023/07/23 00:41:50;;;;;;;0.10;0.10;;;18.30;99.90;;;;;;5028679;28;20209;-80
2023/07/23 00:44:16;;;;;;;0.50;0.50;;;18.20;99.90;;;;;;5028519;28;20668;-80
2023/07/23 00:46:42;;;;;;;0.10;0.10;;;18.20;99.90;;;;;;5013935;28;21167;-80
2023/07/23 00:49:08;;;;;;;4.30;4.07;;;18.30;99.90;;;;;;5032807;28;20224;-80
2023/07/23 00:51:35;;;;;;;0.10;0.10;;;18.20;99.90;;;;;;5013206;28;20845;-80
2023/07/23 00:54:01;;;;;;;0.10;0.10;;;18.20;99.90;;;;;;5023364;28;20181;-80
2023/07/23 00:56:27;;;;;;;0.10;0.10;;;18.20;99.90;;;;;;5023121;28;20179;-81
2023/07/23 00:58:52;;;;;;;0.10;0.10;;;18.10;99.90;;;;;;5031557;28;20220;-80
2023/07/23 01:01:18;;;;;;;0.10;0.10;;;18.00;99.90;;;;;;5031295;28;20629;-80
2023/07/23 01:03:44;;;;;;;0.10;0.10;;;18.00;99.90;;;;;;5006722;28;20529;-80
2023/07/23 01:06:11;;;;;;;0.10;0.10;;;18.00;99.90;;;;;;5022388;28;20210;-80
2023/07/23 01:08:40;;;;;;;0.10;0.10;;;18.00;99.90;;;;;;5035321;28;20185;-80
2023/07/23 01:11:07;;;;;;;0.10;0.10;;;18.00;99.90;;;;;;5030677;28;20209;-80
2023/07/23 01:13:35;;;;;;;0.10;0.10;;;17.90;99.90;;;;;;5029913;28;20214;-80
2023/07/23 01:16:07;;;;;;;0.10;0.10;;;17.80;99.90;;;;;;5022909;28;20213;-80
2023/07/23 01:18:36;;;;;;;0.10;0.10;;;17.80;99.90;;;;;;5019028;28;20187;-80
2023/07/23 01:21:02;;;;;;;0.10;0.10;;;17.70;99.90;;;;;;5032917;28;20185;-80
2023/07/23 01:23:27;;;;;;;0.10;0.10;;;17.60;99.90;;;;;;5033011;28;20202;-80
2023/07/23 01:25:53;;;;;;;0.10;0.10;;;17.50;99.90;;;;;;5032702;28;20553;-80
2023/07/23 01:28:18;;;;;;;0.10;0.10;;;17.40;99.90;;;;;;5027093;28;20187;-81
2023/07/23 01:30:45;;;;;;;0.10;0.10;;;17.40;99.90;;;;;;5031364;28;20174;-81
2023/07/23 01:33:11;;;;;;;0.10;0.10;;;17.40;99.90;;;;;;5030631;28;20210;-80
2023/07/23 01:35:37;;;;;;;0.10;0.10;;;17.40;99.90;;;;;;5031155;28;20186;-80
2023/07/23 01:38:04;;;;;;;0.10;0.10;;;17.30;99.90;;;;;;5025166;28;20179;-80
2023/07/23 01:40:30;;;;;;;0.10;0.10;;;17.30;99.90;;;;;;5031269;28;20214;-80
2023/07/23 01:42:56;;;;;;;0.10;0.10;;;17.30;99.90;;;;;;5031646;28;20692;-80
2023/07/23 01:45:21;;;;;;;0.10;0.10;;;17.20;99.90;;;;;;5025814;28;20186;-80
2023/07/23 01:47:47;;;;;;;0.10;0.10;;;17.20;99.90;;;;;;5026974;28;20187;-80
2023/07/23 01:50:13;;;;;;;0.10;0.10;;;17.00;99.90;;;;;;5019278;28;20195;-81
2023/07/23 01:52:38;;;;;;;0.10;0.10;;;17.00;99.90;;;;;;5030185;28;20618;-80
2023/07/23 01:55:04;;;;;;;0.10;0.10;;;17.00;99.90;;;;;;5034897;28;20182;-80
2023/07/23 01:57:30;;;;;;;0.10;0.10;;;16.90;99.90;;;;;;5035953;28;20659;-80
2023/07/23 01:59:55;;;;;;;0.10;0.10;;;16.90;99.90;;;;;;5031381;28;20186;-80
2023/07/23 02:02:21;;;;;;;0.10;0.10;;;16.90;99.90;;;;;;5033707;28;20680;-80
2023/07/23 02:04:47;;;;;;;0.10;0.10;;;16.90;99.90;;;;;;5016130;28;20270;-80
2023/07/23 02:07:12;;;;;;;0.10;0.10;;;17.00;99.90;;;;;;5017411;28;20201;-79
2023/07/23 02:09:38;;;;;;;0.10;0.10;;;16.70;99.90;;;;;;5028980;28;20182;-80
2023/07/23 02:12:04;;;;;;;0.10;0.10;;;16.70;99.90;;;;;;5031338;28;20222;-80
2023/07/23 02:14:30;;;;;;;0.10;0.10;;;16.60;99.90;;;;;;5004607;28;20282;-80
2023/07/23 02:16:56;;;;;;;0.10;0.10;;;16.50;99.90;;;;;;5012239;28;20225;-80
2023/07/23 02:19:22;;;;;;;0.10;0.10;;;16.50;99.90;;;;;;5030934;28;20191;-80
2023/07/23 02:21:47;;;;;;;0.10;0.10;;;16.40;99.90;;;;;;5014681;28;20215;-79
2023/07/23 02:24:13;;;;;;;0.10;0.10;;;16.30;99.90;;;;;;5029951;28;20179;-80
2023/07/23 02:26:38;;;;;;;0.10;0.10;;;16.20;99.90;;;;;;5027777;28;20539;-80
2023/07/23 02:29:04;;;;;;;0.10;0.10;;;16.10;99.90;;;;;;5031293;28;20177;-80
2023/07/23 02:31:30;;;;;;;0.10;0.10;;;16.20;99.90;;;;;;5035654;28;20206;-81
2023/07/23 02:33:55;;;;;;;0.10;0.10;;;16.20;99.90;;;;;;5016114;28;20202;-80
2023/07/23 02:36:21;;;;;;;1.33;1.33;;;16.30;99.90;;;;;;5028981;28;20395;-80
2023/07/23 02:38:47;;;;;;;0.10;0.10;;;16.40;99.90;;;;;;5009832;28;20187;-80
2023/07/23 02:41:12;;;;;;;0.10;0.10;;;16.40;99.90;;;;;;5028843;28;20187;-80
2023/07/23 02:43:38;;;;;;;0.10;0.10;;;16.40;99.90;;;;;;5015714;28;20191;-80
2023/07/23 02:46:03;;;;;;;0.10;0.10;;;16.40;99.90;;;;;;5027809;28;20186;-80
2023/07/23 02:48:29;;;;;;;0.10;0.10;;;16.50;99.90;;;;;;5019950;28;20194;-80
2023/07/23 02:50:54;;;;;;;0.10;0.10;;;16.50;99.90;;;;;;5020127;28;20187;-80
2023/07/23 02:53:20;;;;;;;0.10;0.10;;;16.60;99.90;;;;;;5033485;28;20210;-80
2023/07/23 02:55:46;;;;;;;0.10;0.10;;;16.60;99.90;;;;;;5032156;28;20179;-80
2023/07/23 02:58:11;;;;;;;0.10;0.10;;;16.40;99.90;;;;;;5024062;28;20266;-80
2023/07/23 03:00:39;;;;;;;0.10;0.10;;;16.20;99.90;;;;;;5016116;28;20187;-80
2023/07/23 03:03:06;;;;;;;0.10;0.10;;;16.10;99.90;;;;;;5022727;28;20213;-80
2023/07/23 03:05:33;;;;;;;0.10;0.10;;;16.00;99.90;;;;;;5028932;28;20268;-80
2023/07/23 03:07:58;;;;;;;0.10;0.10;;;15.90;99.90;;;;;;5028793;28;20236;-80
2023/07/23 03:10:24;;;;;;;0.10;0.10;;;15.80;99.90;;;;;;5029269;28;20194;-81
2023/07/23 03:12:49;;;;;;;0.10;0.10;;;15.70;99.90;;;;;;5028928;28;20676;-80
2023/07/23 03:15:15;;;;;;;0.10;0.10;;;15.70;99.90;;;;;;5022962;28;20752;-80
2023/07/23 03:17:40;;;;;;;0.10;0.10;;;15.60;99.90;;;;;;5027680;28;20178;-80
2023/07/23 03:20:08;;;;;;;0.10;0.10;;;15.60;99.90;;;;;;5031434;28;20585;-80
2023/07/23 03:22:34;;;;;;;0.10;0.10;;;15.50;99.90;;;;;;5016668;28;20214;-80
2023/07/23 03:24:59;;;;;;;0.10;0.10;;;15.50;99.90;;;;;;5027724;28;20236;-80
2023/07/23 03:27:25;;;;;;;0.10;0.10;;;15.40;99.90;;;;;;5033473;28;20186;-80
2023/07/23 03:29:50;;;;;;;0.10;0.10;;;15.30;99.90;;;;;;5023919;28;20217;-79
2023/07/23 03:32:16;;;;;;;0.10;0.10;;;15.40;99.90;;;;;;5016322;28;20265;-80
2023/07/23 03:34:41;;;;;;;0.10;0.10;;;15.50;99.90;;;;;;5014154;28;20664;-80
2023/07/23 03:37:07;;;;;;;0.10;0.10;;;15.50;99.90;;;;;;5021757;28;20182;-80
2023/07/23 03:39:32;;;;;;;0.10;0.10;;;15.50;99.90;;;;;;5030851;28;20810;-79
2023/07/23 03:41:58;;;;;;;0.10;0.10;;;15.70;99.90;;;;;;5021301;28;20273;-80
2023/07/23 03:44:23;;;;;;;0.10;0.10;;;15.80;99.90;;;;;;5022340;28;20190;-81
2023/07/23 03:47:15;;;;;;;0.37;0.37;;;16.00;99.90;;;;;;5029986;28;20766;-80
2023/07/23 03:49:41;;;;;;;0.10;0.10;;;16.00;99.90;;;;;;5023658;28;20179;-80
2023/07/23 03:52:07;;;;;;;0.10;0.10;;;16.00;99.90;;;;;;5013872;28;20207;-80
2023/07/23 03:54:34;;;;;;;0.10;0.10;;;15.80;99.90;;;;;;5015082;28;20178;-80
2023/07/23 03:57:00;;;;;;;0.10;0.10;;;15.80;99.90;;;;;;5026770;28;20182;-81
2023/07/23 03:59:29;;;;;;;0.10;0.10;;;15.70;99.90;;;;;;5025660;28;20255;-80
2023/07/23 04:01:55;;;;;;;0.10;0.10;;;15.80;99.90;;;;;;5032209;28;20217;-80
2023/07/23 04:04:21;;;;;;;0.10;0.10;;;15.90;99.90;;;;;;5025061;28;20190;-80
2023/07/23 04:06:46;;;;;;;0.10;0.10;;;16.30;99.90;;;;;;5015893;28;20206;-79
2023/07/23 04:09:13;;;;;;;0.10;0.10;;;16.90;99.90;;;;;;5020906;28;20201;-80
2023/07/23 04:11:39;;;;;;;0.10;0.10;;;17.60;99.90;;;;;;5016639;28;20215;-80
2023/07/23 04:14:04;;;;;;;0.10;0.10;;;18.30;99.90;;;;;;5030249;28;20178;-80
2023/07/23 04:16:30;;;;;;;0.10;0.10;;;18.50;99.90;;;;;;5025617;28;20201;-80
2023/07/23 04:18:55;;;;;;;0.10;0.10;;;18.50;99.90;;;;;;5016122;28;20183;-80
2023/07/23 04:21:22;;;;;;;0.10;0.10;;;18.50;99.90;;;;;;5018584;28;20210;-80
2023/07/23 04:23:52;;;;;;;0.10;0.10;;;18.30;99.90;;;;;;5028091;28;20639;-80
2023/07/23 04:26:18;;;;;;;0.10;0.10;;;18.00;99.90;;;;;;5032554;28;20186;-80
2023/07/23 04:28:45;;;;;;;0.10;0.10;;;17.80;99.90;;;;;;5020485;28;20296;-79
2023/07/23 04:31:11;;;;;;;0.10;0.10;;;17.50;99.90;;;;;;5024481;28;20186;-81
2023/07/23 04:33:37;;;;;;;0.10;0.10;;;17.50;99.90;;;;;;5023950;28;20771;-80
2023/07/23 04:36:10;;;;;;;0.10;0.10;;;17.40;99.90;;;;;;5020815;28;20269;-80
2023/07/23 04:38:35;;;;;;;0.10;0.10;;;17.20;99.90;;;;;;5025316;28;20664;-80
2023/07/23 04:41:01;;;;;;;0.10;0.10;;;17.00;99.90;;;;;;5023227;28;20298;-80
2023/07/23 04:43:27;;;;;;;0.10;0.10;;;16.90;99.90;;;;;;5025430;28;20208;-81
2023/07/23 04:45:52;;;;;;;0.10;0.10;;;16.70;99.90;;;;;;5027478;28;20183;-80
2023/07/23 04:48:18;;;;;;;0.10;0.10;;;16.80;99.90;;;;;;5024526;28;20183;-81
2023/07/23 04:50:43;;;;;;;0.10;0.10;;;16.90;99.90;;;;;;5025922;28;20189;-81
2023/07/23 04:53:09;;;;;;;0.10;0.10;;;16.90;99.90;;;;;;5027210;28;20217;-81
2023/07/23 04:55:35;;;;;;;0.10;0.10;;;17.20;99.90;;;;;;5028949;28;20644;-81
2023/07/23 04:58:01;;;;;;;0.10;0.10;;;17.30;99.90;;;;;;5028028;28;20186;-81
2023/07/23 05:00:27;;;;;;;0.10;0.10;;;17.60;99.90;;;;;;5028074;28;20193;-81
2023/07/23 05:02:53;;;;;;;0.10;0.10;;;17.70;99.90;;;;;;5031075;28;20214;-81
2023/07/23 05:05:19;;;;;;;0.10;0.10;;;17.90;99.90;;;;;;5027655;28;20209;-82
2023/07/23 05:07:44;;;;;;;0.10;0.10;;;18.10;99.90;;;;;;5029405;28;20193;-81
2023/07/23 05:10:10;;;;;;;0.10;0.10;;;18.10;99.90;;;;;;5023519;28;20191;-80
2023/07/23 05:12:36;;;;;;;0.10;0.10;;;18.20;99.90;;;;;;5026629;28;20275;-81
2023/07/23 05:15:13;;;;;;;0.10;0.10;;;18.40;99.90;;;;;;5025103;28;20197;-81
2023/07/23 05:17:39;;;;;;;0.10;0.10;;;18.60;99.90;;;;;;5026807;28;20260;-83
2023/07/23 05:20:06;;;;;;;0.10;0.10;;;18.70;99.90;;;;;;5034426;28;20180;-81
2023/07/23 05:22:33;;;;;;;0.10;0.10;;;18.70;99.90;;;;;;5036255;28;20241;-81
2023/07/23 05:24:58;;;;;;;0.10;0.10;;;18.70;99.90;;;;;;5021968;28;20244;-81
2023/07/23 05:27:26;;;;;;;0.10;0.10;;;18.80;99.90;;;;;;5023759;28;20182;-81
2023/07/23 05:29:51;;;;;;;0.10;0.10;;;18.90;99.90;;;;;;5030544;28;20189;-82
2023/07/23 05:32:18;;;;;;;0.10;0.10;;;19.00;99.90;;;;;;5026861;28;20217;-81
2023/07/23 05:34:43;;;;;;;0.10;0.10;;;19.10;99.90;;;;;;5020853;28;20179;-81
2023/07/23 05:37:09;;;;;;;0.10;0.10;;;19.20;99.90;;;;;;5027114;28;20725;-81
2023/07/23 05:39:35;;;;;;;0.10;0.10;;;19.30;99.90;;;;;;5031426;28;20185;-81
2023/07/23 05:42:00;;;;;;;0.10;0.10;;;19.40;99.90;;;;;;5030392;28;20202;-81
2023/07/23 05:44:26;;;;;;;0.10;0.10;;;19.50;99.90;;;;;;5024155;28;20643;-81
2023/07/23 05:46:51;;;;;;;0.10;0.10;;;19.50;99.90;;;;;;5022838;28;20617;-81
2023/07/23 05:49:17;;;;;;;0.10;0.10;;;19.60;99.90;;;;;;5032255;28;20217;-81
2023/07/23 05:51:43;;;;;;;0.10;0.10;;;19.70;99.90;;;;;;5020460;28;20867;-82
2023/07/23 05:54:08;;;;;;;0.10;0.10;;;19.70;99.90;;;;;;5035751;28;20181;-81
2023/07/23 05:56:34;;;;;;;0.10;0.10;;;19.90;99.90;;;;;;5025693;28;20178;-81
2023/07/23 05:59:00;;;;;;;0.10;0.10;;;20.10;99.90;;;;;;5035615;28;20190;-81
2023/07/23 06:01:26;;;;;;;0.10;0.10;;;20.30;99.90;;;;;;5019678;28;20236;-82
2023/07/23 06:03:51;;;;;;;0.10;0.10;;;20.20;99.90;;;;;;5026567;28;20198;-81
2023/07/23 06:06:17;;;;;;;0.10;0.10;;;20.40;99.90;;;;;;5034798;28;20254;-81
2023/07/23 06:08:42;;;;;;;0.10;0.10;;;20.40;99.90;;;;;;5035208;28;20190;-79
2023/07/23 06:11:08;;;;;;;0.10;0.10;;;20.30;99.90;;;;;;5029296;28;20258;-81
2023/07/23 06:13:33;;;;;;;0.10;0.10;;;20.50;99.90;;;;;;5031180;28;20376;-81
2023/07/23 06:15:59;;;;;;;0.10;0.10;;;20.50;99.90;;;;;;5028995;28;20186;-80
2023/07/23 06:18:24;;;;;;;0.10;0.10;;;20.80;99.90;;;;;;5029916;28;20197;-80
2023/07/23 06:20:50;;;;;;;0.10;0.10;;;21.00;99.90;;;;;;5026908;28;20197;-81
2023/07/23 06:23:15;;;;;;;0.10;0.10;;;21.10;99.90;;;;;;5028562;28;20215;-81
2023/07/23 06:25:41;;;;;;;0.10;0.10;;;21.20;99.90;;;;;;5025671;28;20186;-80
2023/07/23 06:28:06;;;;;;;0.10;0.10;;;21.20;99.90;;;;;;5019769;28;20190;-81
2023/07/23 06:30:33;;;;;;;0.10;0.10;;;21.20;99.90;;;;;;5026260;28;20198;-80
2023/07/23 06:32:59;;;;;;;0.10;0.10;;;21.10;99.90;;;;;;5027164;28;20760;-81
2023/07/23 06:35:24;;;;;;;0.10;0.10;;;21.10;99.90;;;;;;5027981;28;20194;-81
2023/07/23 06:37:50;;;;;;;0.10;0.10;;;21.10;99.90;;;;;;5029428;28;20187;-81
2023/07/23 06:40:16;;;;;;;0.10;0.10;;;21.10;99.90;;;;;;5029675;28;20553;-81
2023/07/23 06:42:41;;;;;;;0.10;0.10;;;21.10;99.90;;;;;;5029142;28;20210;-81
2023/07/23 06:45:08;;;;;;;0.10;0.10;;;21.20;99.90;;;;;;5031763;28;20681;-81
2023/07/23 06:47:34;;;;;;;0.10;0.10;;;21.30;99.90;;;;;;5029365;28;20872;-81
2023/07/23 06:49:59;;;;;;;0.10;0.10;;;21.40;99.90;;;;;;5027428;28;20181;-81
2023/07/23 06:52:26;;;;;;;0.10;0.10;;;21.40;99.90;;;;;;5024779;28;20560;-81
2023/07/23 06:54:51;;;;;;;0.10;0.10;;;21.30;99.90;;;;;;5027263;28;20201;-81
2023/07/23 06:57:17;;;;;;;0.10;0.10;;;21.50;99.90;;;;;;5029768;28;20179;-81
2023/07/23 06:59:43;;;;;;;0.10;0.10;;;21.40;99.90;;;;;;5030348;28;20175;-81
2023/07/23 07:02:08;;;;;;;0.10;0.10;;;21.50;99.90;;;;;;5029763;28;20671;-81
2023/07/23 07:04:34;;;;;;;0.33;0.33;;;21.50;99.90;;;;;;5029330;28;20193;-81
2023/07/23 07:06:59;;;;;;;0.10;0.10;;;21.60;99.90;;;;;;5030642;28;20198;-81
2023/07/23 07:09:25;;;;;;;0.10;0.10;;;21.60;99.90;;;;;;5028131;28;20189;-81
2023/07/23 07:11:51;;;;;;;0.10;0.10;;;21.60;99.90;;;;;;5029329;28;20214;-81
2023/07/23 07:14:16;;;;;;;0.10;0.10;;;21.60;99.90;;;;;;5029484;28;20179;-81
2023/07/23 07:16:42;;;;;;;0.10;0.10;;;21.60;99.90;;;;;;5025458;28;20301;-81
2023/07/23 07:19:07;;;;;;;0.10;0.10;;;21.50;99.90;;;;;;5028302;28;20174;-81
2023/07/23 07:21:33;;;;;;;0.10;0.10;;;21.40;99.90;;;;;;5028625;28;20609;-81
2023/07/23 07:23:58;;;;;;;0.10;0.10;;;21.30;99.90;;;;;;5025408;28;20364;-81
2023/07/23 07:26:24;;;;;;;0.10;0.10;;;21.30;99.90;;;;;;5026506;28;20281;-81
2023/07/23 07:28:51;;;;;;;0.10;0.10;;;21.40;99.90;;;;;;5028765;28;20600;-81
2023/07/23 07:31:17;;;;;;;0.10;0.10;;;21.30;99.90;;;;;;5027108;28;20221;-81
2023/07/23 07:33:44;;;;;;;0.10;0.10;;;21.20;99.90;;;;;;5022504;28;20538;-81
2023/07/23 07:36:10;;;;;;;0.10;0.10;;;21.10;99.90;;;;;;5026593;28;20262;-81
2023/07/23 07:38:35;;;;;;;0.10;0.10;;;21.10;99.90;;;;;;5024198;28;20191;-81
2023/07/23 07:41:01;;;;;;;0.10;0.10;;;21.10;99.90;;;;;;5026777;28;20199;-81
2023/07/23 07:43:27;;;;;;;0.10;0.10;;;21.10;99.90;;;;;;5030908;28;20221;-81
2023/07/23 07:45:58;;;;;;;0.10;0.10;;;21.10;99.90;;;;;;5022424;28;20640;-81
2023/07/23 07:48:23;;;;;;;0.10;0.10;;;21.10;99.90;;;;;;5020232;28;20199;-81
2023/07/23 07:50:59;;;;;;;0.10;0.10;;;21.20;99.90;;;;;;5026348;28;20252;-81
2023/07/23 07:53:25;;;;;;;0.10;0.10;;;21.10;99.90;;;;;;5028382;28;20239;-80
2023/07/23 07:55:51;;;;;;;0.10;0.10;;;21.10;99.90;;;;;;5032094;28;20660;-80
2023/07/23 07:58:24;;;;;;;0.10;0.10;;;21.10;99.90;;;;;;5025929;28;20231;-81
2023/07/23 08:00:51;;;;;;;0.10;0.10;;;21.20;99.90;;;;;;5028274;28;20194;-80
2023/07/23 08:03:17;;;;;;;0.10;0.10;;;21.20;99.90;;;;;;5028475;28;20217;-81
2023/07/23 08:05:42;;;;;;;0.10;0.10;;;21.20;99.90;;;;;;5027728;28;20203;-81
2023/07/23 08:08:13;;;;;;;0.10;0.10;;;21.10;99.90;;;;;;5030508;28;20198;-81
2023/07/23 08:10:39;;;;;;;0.10;0.10;;;21.10;99.90;;;;;;5030081;28;20194;-81
2023/07/23 08:13:07;;;;;;;0.10;0.10;;;21.20;99.90;;;;;;5026248;28;20240;-81
2023/07/23 08:15:34;;;;;;;0.10;0.10;;;21.20;99.90;;;;;;5024259;28;20179;-80
2023/07/23 08:18:00;;;;;;;0.10;0.10;;;21.30;99.90;;;;;;5027356;28;20494;-80
2023/07/23 08:20:32;;;;;;;0.10;0.10;;;21.40;99.90;;;;;;5022337;28;20183;-81
2023/07/23 08:22:58;;;;;;;0.10;0.10;;;21.70;99.90;;;;;;5031135;28;20202;-80
2023/07/23 08:25:24;;;;;;;0.10;0.10;;;21.70;99.90;;;;;;5028202;28;20661;-81
2023/07/23 08:27:58;;;;;;;0.10;0.10;;;21.90;99.90;;;;;;5019355;28;20227;-80
2023/07/23 08:30:24;;;;;;;0.10;0.10;;;22.10;99.90;;;;;;5027093;28;20200;-80
2023/07/23 08:32:51;;;;;;;0.10;0.10;;;22.30;99.90;;;;;;5024092;28;20646;-80
2023/07/23 08:35:17;;;;;;;0.10;0.10;;;22.50;99.90;;;;;;5024659;28;20191;-80
2023/07/23 08:37:43;;;;;;;0.20;0.20;;;22.40;99.90;;;;;;5029670;28;20186;-81
2023/07/23 08:40:09;;;;;;;0.10;0.10;;;22.40;99.90;;;;;;5026744;28;20270;-80
2023/07/23 08:42:53;;;;;;;0.10;0.10;;;22.60;99.90;;;;;;5026563;28;20207;-80
2023/07/23 08:45:49;;;;;;;0.10;0.10;;;22.60;99.90;;;;;;5025712;28;20186;-81
2023/07/23 08:48:17;;;;;;;0.10;0.10;;;22.70;99.90;;;;;;5024382;28;20210;-81
2023/07/23 08:50:45;;;;;;;0.10;0.10;;;22.90;99.90;;;;;;5024034;28;20199;-82
2023/07/23 08:53:12;;;;;;;0.10;0.10;;;23.30;99.90;;;;;;5024918;28;20329;-81
2023/07/23 08:55:42;;;;;;;0.10;0.10;;;23.50;99.90;;;;;;5026171;28;20182;-82
2023/07/23 08:58:11;;;;;;;0.10;0.10;;;23.50;99.90;;;;;;5023556;28;20261;-81
2023/07/23 09:00:37;;;;;;;0.10;0.10;;;23.50;99.90;;;;;;5023276;28;20200;-83
2023/07/23 09:03:06;;;;;;;0.10;0.10;;;23.40;99.90;;;;;;5025723;28;20273;-81
2023/07/23 09:05:32;;;;;;;0.10;0.10;;;23.50;99.90;;;;;;5027097;28;20301;-81
2023/07/23 09:07:58;;;;;;;0.10;0.10;;;23.50;99.90;;;;;;5029276;28;20221;-82
2023/07/23 09:10:24;;;;;;;0.10;0.10;;;23.30;99.90;;;;;;5024315;28;20224;-81
2023/07/23 09:12:49;;;;;;;0.10;0.10;;;23.30;99.90;;;;;;5026297;28;20269;-81
2023/07/23 09:15:15;;;;;;;0.10;0.10;;;23.10;99.90;;;;;;5023271;28;20255;-81
2023/07/23 09:17:41;;;;;;;0.10;0.10;;;23.20;99.90;;;;;;5026569;28;20265;-80
2023/07/23 09:20:10;;;;;;;0.10;0.10;;;23.00;99.90;;;;;;5022234;28;20182;-81
2023/07/23 09:22:36;;;;;;;0.10;0.10;;;23.00;99.90;;;;;;5022801;28;20218;-80
2023/07/23 09:25:02;;;;;;;0.10;0.10;;;23.00;99.90;;;;;;5019135;28;20206;-81
2023/07/23 09:27:36;;;;;;;0.10;0.10;;;23.00;99.90;;;;;;5021541;28;20182;-80
2023/07/23 09:30:03;;;;;;;0.10;0.10;;;23.00;99.90;;;;;;5022353;28;20182;-80
2023/07/23 09:32:29;;;;;;;0.10;0.10;;;22.90;99.90;;;;;;5029456;28;20215;-81
2023/07/23 09:34:57;;;;;;;0.10;0.10;;;22.80;99.90;;;;;;5019065;28;20185;-80
2023/07/23 09:37:23;;;;;;;0.10;0.10;;;22.80;99.90;;;;;;5023649;28;20218;-80
2023/07/23 09:39:48;;;;;;;0.10;0.10;;;22.70;99.90;;;;;;5027123;28;20190;-80
2023/07/23 09:42:14;;;;;;;0.10;0.10;;;22.70;99.90;;;;;;5032540;28;20206;-80
2023/07/23 09:44:40;;;;;;;0.10;0.10;;;22.70;99.90;;;;;;5030995;28;20233;-80
2023/07/23 09:47:05;;;;;;;0.10;0.10;;;22.80;99.90;;;;;;5035739;28;20209;-80
2023/07/23 09:49:31;;;;;;;0.10;0.10;;;22.80;99.90;;;;;;5029358;28;20652;-81
2023/07/23 09:51:57;;;;;;;0.10;0.10;;;22.90;99.90;;;;;;5027918;28;20206;-80
2023/07/23 09:54:25;;;;;;;0.10;0.10;;;23.00;99.90;;;;;;5026695;28;20186;-80
2023/07/23 09:56:51;;;;;;;0.10;0.10;;;23.00;99.90;;;;;;5027626;28;20179;-80
2023/07/23 09:59:18;;;;;;;0.10;0.10;;;23.10;99.90;;;;;;5023606;28;20571;-80
2023/07/23 10:01:44;;;;;;;0.10;0.10;;;23.10;99.90;;;;;;5016897;28;20214;-80
2023/07/23 10:04:11;;;;;;;0.10;0.10;;;23.20;99.90;;;;;;5027006;28;20182;-80
2023/07/23 10:06:37;;;;;;;0.10;0.10;;;23.30;99.90;;;;;;5034135;28;20194;-80
2023/07/23 10:09:03;;;;;;;0.10;0.10;;;23.20;99.90;;;;;;5030294;28;20638;-80
2023/07/23 10:11:28;;;;;;;0.10;0.10;;;23.30;99.90;;;;;;5024524;28;20235;-80
2023/07/23 10:13:54;;;;;;;0.10;0.10;;;23.40;99.90;;;;;;5018229;28;20656;-80
2023/07/23 10:16:26;;;;;;;0.10;0.10;;;23.60;99.90;;;;;;5024691;28;20178;-80
2023/07/23 10:18:54;;;;;;;0.10;0.10;;;23.70;99.90;;;;;;5021214;28;20183;-80
2023/07/23 10:21:20;;;;;;;0.10;0.10;;;23.70;99.90;;;;;;5027738;28;20197;-81
2023/07/23 10:23:56;;;;;;;0.10;0.10;;;23.90;99.90;;;;;;5023399;28;20696;-80
2023/07/23 10:26:24;;;;;;;0.10;0.10;;;24.00;99.90;;;;;;5025393;28;20182;-81
2023/07/23 10:28:58;;;;;;;0.10;0.10;;;23.90;99.90;;;;;;5016140;28;20194;-80
2023/07/23 10:31:28;;;;;;;0.10;0.10;;;24.10;99.90;;;;;;5024958;28;20193;-80
2023/07/23 10:33:54;;;;;;;0.10;0.10;;;24.20;99.90;;;;;;5028615;28;20186;-80
2023/07/23 10:36:22;;;;;;;0.10;0.10;;;24.10;99.90;;;;;;5031910;28;20265;-81
2023/07/23 10:39:14;;;;;;;0.10;0.10;;;24.20;99.90;;;;;;5025623;28;20211;-81
2023/07/23 10:41:55;;;;;;;0.10;0.10;;;24.30;99.90;;;;;;5012841;28;20748;-80
2023/07/23 10:44:27;;;;;;;0.10;0.10;;;24.50;99.90;;;;;;5014888;28;20175;-81
2023/07/23 10:46:57;;;;;;;0.10;0.10;;;24.60;99.90;;;;;;5028329;28;20273;-80
2023/07/23 10:49:27;;;;;;;0.10;0.10;;;24.90;99.90;;;;;;5013344;28;20706;-80
2023/07/23 10:51:53;;;;;;;0.10;0.10;;;25.20;99.90;;;;;;5029964;28;20222;-80
2023/07/23 10:54:20;;;;;;;0.10;0.10;;;25.60;99.90;;;;;;5024167;28;20608;-80
2023/07/23 10:56:49;;;;;;;0.10;0.10;;;26.00;99.90;;;;;;5015146;28;20186;-81
2023/07/23 10:59:19;;;;;;;0.10;0.10;;;26.20;99.90;;;;;;5025028;28;20182;-80
2023/07/23 11:01:45;;;;;;;0.10;0.10;;;26.30;99.90;;;;;;5025821;28;20289;-81
2023/07/23 11:04:13;;;;;;;0.10;0.10;;;26.10;99.90;;;;;;5029340;28;20209;-80
2023/07/23 11:06:57;;;;;;;0.10;0.10;;;26.30;99.90;;;;;;5025310;28;20201;-80
2023/07/23 11:09:30;;;;;;;0.10;0.10;;;26.50;99.90;;;;;;5018997;28;20244;-81
2023/07/23 11:11:57;;;;;;;0.10;0.10;;;26.80;99.90;;;;;;5017765;28;20996;-81
2023/07/23 11:14:28;;;;;;;0.10;0.10;;;26.80;99.90;;;;;;5028186;28;20668;-81
2023/07/23 11:17:01;;;;;;;0.10;0.10;;;26.90;99.90;;;;;;5019012;28;20659;-80
2023/07/23 11:19:27;;;;;;;0.10;0.10;;;27.10;99.90;;;;;;5022417;28;20186;-81
2023/07/23 11:21:56;;;;;;;0.10;0.10;;;27.20;99.90;;;;;;5030084;28;20213;-81
2023/07/23 11:24:23;;;;;;;0.10;0.10;;;27.10;99.90;;;;;;5024543;28;20186;-80
2023/07/23 11:26:50;;;;;;;0.10;0.10;;;27.20;99.90;;;;;;5027043;28;20252;-81
2023/07/23 11:29:16;;;;;;;0.10;0.10;;;27.20;99.90;;;;;;5025905;28;20216;-80
2023/07/23 11:31:42;;;;;;;0.10;0.10;;;27.20;99.90;;;;;;5026814;28;20704;-80
2023/07/23 11:34:08;;;;;;;0.10;0.10;;;27.10;99.90;;;;;;5019431;28;20178;-80
2023/07/23 11:36:36;;;;;;;0.20;0.20;;;27.20;99.90;;;;;;5027088;28;20178;-81
2023/07/23 11:39:02;;;;;;;0.10;0.10;;;27.20;99.90;;;;;;5028843;28;20201;-81
2023/07/23 11:41:34;;;;;;;0.10;0.10;;;27.20;99.90;;;;;;5019472;28;20580;-80
2023/07/23 11:44:03;;;;;;;0.10;0.10;;;27.20;99.90;;;;;;5028522;28;20179;-81
2023/07/23 11:46:37;;;;;;;6.43;3.10;;;27.40;99.90;;;;;;5020591;28;20554;-81
2023/07/23 11:49:06;;;;;;;0.10;0.10;;;27.40;99.90;;;;;;5024578;28;20539;-81
2023/07/23 11:51:32;;;;;;;0.10;0.10;;;27.30;99.90;;;;;;5023855;28;20216;-80
2023/07/23 11:54:00;;;;;;;0.10;0.10;;;27.50;99.90;;;;;;5023712;28;20187;-81
2023/07/23 11:56:26;;;;;;;0.10;0.10;;;27.80;99.90;;;;;;5022799;28;20175;-80
2023/07/23 11:58:52;;;;;;;0.10;0.10;;;27.90;99.90;;;;;;5021192;28;20182;-79
2023/07/23 12:01:17;;;;;;;0.10;0.10;;;27.70;99.90;;;;;;5022765;28;20178;-81
2023/07/23 12:03:45;;;;;;;0.10;0.10;;;27.80;99.90;;;;;;5026653;28;20225;-81
2023/07/23 12:06:15;;;;;;;0.10;0.10;;;27.60;99.90;;;;;;5026985;28;20229;-81
2023/07/23 12:08:46;;;;;;;0.10;0.10;;;27.50;99.90;;;;;;5025126;28;20171;-82
2023/07/23 12:11:13;;;;;;;0.10;0.10;;;27.60;99.90;;;;;;5023683;28;20190;-81
2023/07/23 12:13:49;;;;;;;0.10;0.10;;;27.20;99.90;;;;;;5022009;28;20217;-81
2023/07/23 12:16:38;;;;;;;0.10;0.10;;;27.40;99.90;;;;;;5013465;28;20179;-81
2023/07/23 12:19:06;;;;;;;0.10;0.10;;;27.70;99.90;;;;;;5024432;28;20183;-80
2023/07/23 12:21:36;;;;;;;0.10;0.10;;;27.60;99.90;;;;;;5021789;28;20196;-80
2023/07/23 12:24:14;;;;;;;0.10;0.10;;;27.50;99.90;;;;;;5026443;28;20182;-81
2023/07/23 12:26:40;;;;;;;0.10;0.10;;;27.60;99.90;;;;;;5024585;28;20191;-80
2023/07/23 12:29:06;;;;;;;0.10;0.10;;;27.50;99.90;;;;;;5024651;28;20179;-81
2023/07/23 12:31:34;;;;;;;0.10;0.10;;;27.60;99.90;;;;;;5013991;28;20202;-81
2023/07/23 12:34:00;;;;;;;0.10;0.10;;;27.70;99.90;;;;;;5019885;28;20186;-82
2023/07/23 12:36:25;;;;;;;0.10;0.10;;;27.80;99.90;;;;;;5018028;28;20686;-81
2023/07/23 12:38:51;;;;;;;0.10;0.10;;;28.10;99.90;;;;;;5020410;28;20252;-81
2023/07/23 12:41:17;;;;;;;10.50;9.95;;;28.00;99.90;;;;;;5022875;28;20269;-81
2023/07/23 12:43:42;;;;;;;0.10;0.10;;;28.00;99.90;;;;;;5035231;28;20202;-81
2023/07/23 12:46:08;;;;;;;0.10;0.10;;;28.20;99.90;;;;;;5026004;28;20280;-80